Time;durP1;ratioP1;P1;durP2;ratioP2;P2;SDS_P1;SDS_P2;PMS_P1;PMS_P2;Temp;Humidity;BMP_temperature;BMP_pressure;BME280_temperature;BME280_humidity;BME280_pressure;Samples;Min_cycle;Max_cycle;Signal;HPM_P1;HPM_P2
2024/02/23 00:02:19;;;;;;;0.85;0.40;;;20.90;49.10;;;;;;5056477;27;86694;-49
2024/02/23 00:04:45;;;;;;;1.02;0.50;;;20.90;49.20;;;;;;5071870;27;86012;-54
2024/02/23 00:07:11;;;;;;;0.30;0.30;;;20.80;49.00;;;;;;5062193;27;86580;-54
2024/02/23 00:09:37;;;;;;;0.70;0.40;;;20.80;49.40;;;;;;5071237;27;85968;-52
2024/02/23 00:12:04;;;;;;;1.58;0.38;;;20.80;49.60;;;;;;5091535;27;89321;-51
2024/02/23 00:14:31;;;;;;;1.08;0.95;;;20.80;49.70;;;;;;5077671;27;86914;-55
2024/02/23 00:16:57;;;;;;;0.68;0.40;;;20.80;49.70;;;;;;5056077;27;86628;-49
2024/02/23 00:19:25;;;;;;;0.73;0.20;;;20.70;49.80;;;;;;5082882;27;86548;-51
2024/02/23 00:21:52;;;;;;;2.55;0.40;;;20.80;50.00;;;;;;5087007;27;87304;-51
2024/02/23 00:24:20;;;;;;;0.50;0.30;;;20.70;50.10;;;;;;5066204;27;86426;-54
2024/02/23 00:26:47;;;;;;;1.05;0.40;;;20.70;50.00;;;;;;5060947;27;86105;-54
2024/02/23 00:29:12;;;;;;;0.65;0.50;;;20.70;50.20;;;;;;5066279;27;85781;-53
2024/02/23 00:31:40;;;;;;;0.40;0.38;;;20.70;50.40;;;;;;5074257;27;86791;-52
2024/02/23 00:34:10;;;;;;;0.63;0.30;;;20.70;50.40;;;;;;5074267;27;87001;-53
2024/02/23 00:36:38;;;;;;;0.80;0.40;;;20.70;50.40;;;;;;5074367;27;85805;-54
2024/02/23 00:39:04;;;;;;;0.35;0.32;;;20.70;50.50;;;;;;5089344;27;85798;-52
2024/02/23 00:41:29;;;;;;;2.20;0.40;;;20.70;50.40;;;;;;5073522;27;87599;-51
2024/02/23 00:43:55;;;;;;;1.00;0.43;;;20.70;50.60;;;;;;5061820;27;86364;-51
2024/02/23 00:46:21;;;;;;;0.47;0.45;;;20.70;50.50;;;;;;5055268;27;86203;-52
2024/02/23 00:48:48;;;;;;;1.23;0.57;;;20.60;50.60;;;;;;5065171;27;86885;-53
2024/02/23 00:51:14;;;;;;;0.77;0.70;;;20.60;50.60;;;;;;5078616;27;89314;-50
2024/02/23 00:53:40;;;;;;;0.75;0.30;;;20.60;50.70;;;;;;5079979;27;86295;-52
2024/02/23 00:56:07;;;;;;;0.35;0.30;;;20.60;50.40;;;;;;5077196;27;85941;-54
2024/02/23 00:58:33;;;;;;;1.48;0.50;;;20.60;50.60;;;;;;5087931;27;85990;-51
2024/02/23 01:01:01;;;;;;;1.10;0.50;;;20.60;50.40;;;;;;5076782;27;87317;-50
2024/02/23 01:03:26;;;;;;;0.45;0.45;;;20.60;50.40;;;;;;5092015;27;86122;-54
2024/02/23 01:05:52;;;;;;;1.42;0.68;;;20.60;50.50;;;;;;5094946;27;86175;-54
2024/02/23 01:08:19;;;;;;;1.15;0.40;;;20.60;50.40;;;;;;5073522;27;85702;-51
2024/02/23 01:10:46;;;;;;;0.98;0.50;;;20.60;50.50;;;;;;5069378;27;86775;-52
2024/02/23 01:13:12;;;;;;;0.57;0.50;;;20.60;50.50;;;;;;5094051;27;86550;-52
2024/02/23 01:15:38;;;;;;;0.68;0.40;;;20.50;50.70;;;;;;5068258;27;86374;-51
2024/02/23 01:18:07;;;;;;;0.80;0.30;;;20.50;50.50;;;;;;5075577;27;86094;-52
2024/02/23 01:20:33;;;;;;;1.08;0.30;;;20.50;51.10;;;;;;5058929;27;86121;-55
2024/02/23 01:22:59;;;;;;;0.52;0.32;;;20.60;50.60;;;;;;5074261;27;86655;-50
2024/02/23 01:25:24;;;;;;;1.02;0.60;;;20.50;50.70;;;;;;5058499;27;86113;-52
2024/02/23 01:27:50;;;;;;;3.13;0.57;;;20.50;50.60;;;;;;5058799;27;85843;-55
2024/02/23 01:30:15;;;;;;;0.28;0.20;;;20.50;50.90;;;;;;5058456;27;86905;-51
2024/02/23 01:32:41;;;;;;;0.30;0.30;;;20.50;50.80;;;;;;5063882;27;86472;-55
2024/02/23 01:35:08;;;;;;;1.02;0.40;;;20.50;50.90;;;;;;5089888;27;86035;-54
2024/02/23 01:37:34;;;;;;;1.00;0.55;;;20.50;50.40;;;;;;5066830;27;85715;-52
2024/02/23 01:40:00;;;;;;;0.38;0.30;;;20.50;50.60;;;;;;5077601;27;87513;-52
2024/02/23 01:42:26;;;;;;;0.30;0.30;;;20.50;50.80;;;;;;5066187;27;86416;-55
2024/02/23 01:44:52;;;;;;;0.25;0.25;;;20.50;50.90;;;;;;5069723;27;86008;-54
2024/02/23 01:47:18;;;;;;;0.65;0.50;;;20.50;50.80;;;;;;5075364;27;86256;-52
2024/02/23 01:49:46;;;;;;;1.35;0.50;;;20.50;50.90;;;;;;5069784;27;86409;-50
2024/02/23 01:52:13;;;;;;;0.20;0.20;;;20.50;50.90;;;;;;5071567;27;85834;-49
2024/02/23 01:54:40;;;;;;;2.45;0.68;;;20.50;50.70;;;;;;5077534;27;85669;-50
2024/02/23 01:57:09;;;;;;;0.90;0.40;;;20.50;50.60;;;;;;5076338;27;85635;-52
2024/02/23 01:59:39;;;;;;;0.43;0.30;;;20.50;50.80;;;;;;5088024;27;87618;-52
2024/02/23 02:02:05;;;;;;;1.23;0.45;;;20.40;50.80;;;;;;5075020;27;87460;-52
2024/02/23 02:04:30;;;;;;;0.50;0.30;;;20.50;50.80;;;;;;5058236;27;85888;-51
2024/02/23 02:06:58;;;;;;;0.75;0.38;;;20.40;50.80;;;;;;5064726;27;85898;-51
2024/02/23 02:09:23;;;;;;;0.43;0.30;;;20.40;50.70;;;;;;5072580;27;86982;-53
2024/02/23 02:11:50;;;;;;;1.00;0.40;;;20.40;50.80;;;;;;5077492;27;86646;-49
2024/02/23 02:14:17;;;;;;;0.60;0.30;;;20.40;50.80;;;;;;5091405;27;85816;-53
2024/02/23 02:16:44;;;;;;;0.98;0.40;;;20.40;51.10;;;;;;5073284;27;86881;-50
2024/02/23 02:19:11;;;;;;;2.00;0.60;;;20.40;51.00;;;;;;5073014;27;89357;-50
2024/02/23 02:21:37;;;;;;;0.75;0.52;;;20.40;51.00;;;;;;5079829;27;87389;-50
2024/02/23 02:24:04;;;;;;;0.40;0.30;;;20.40;50.90;;;;;;5064270;27;85792;-54
2024/02/23 02:26:30;;;;;;;1.65;0.50;;;20.40;51.00;;;;;;5069639;27;85836;-49
2024/02/23 02:28:57;;;;;;;1.05;0.70;;;20.30;51.10;;;;;;5075582;27;86755;-49
2024/02/23 02:31:23;;;;;;;1.27;0.52;;;20.30;51.20;;;;;;5063190;27;86065;-54
2024/02/23 02:33:49;;;;;;;0.43;0.43;;;20.30;51.10;;;;;;5057456;27;86185;-53
2024/02/23 02:36:15;;;;;;;1.75;0.63;;;20.30;51.30;;;;;;5057345;27;86185;-48
2024/02/23 02:38:40;;;;;;;0.68;0.30;;;20.30;51.40;;;;;;5069263;27;86116;-52
2024/02/23 02:41:06;;;;;;;0.50;0.30;;;20.30;51.30;;;;;;5057104;27;86383;-54
2024/02/23 02:43:32;;;;;;;0.60;0.52;;;20.30;51.40;;;;;;5056908;27;85744;-48
2024/02/23 02:45:59;;;;;;;0.63;0.30;;;20.30;51.40;;;;;;5072070;27;86354;-52
2024/02/23 02:48:24;;;;;;;0.68;0.50;;;20.30;51.50;;;;;;5075813;27;86183;-50
2024/02/23 02:50:51;;;;;;;1.45;0.55;;;20.30;51.30;;;;;;5076290;27;86320;-52
2024/02/23 02:53:17;;;;;;;0.28;0.25;;;20.30;51.30;;;;;;5076692;27;85872;-50
2024/02/23 02:55:43;;;;;;;0.82;0.50;;;20.20;51.40;;;;;;5092434;27;85933;-51
2024/02/23 02:58:11;;;;;;;1.58;0.40;;;20.20;51.20;;;;;;5076914;27;86266;-51
2024/02/23 03:00:38;;;;;;;0.85;0.40;;;20.20;51.10;;;;;;5064602;27;86255;-53
2024/02/23 03:03:04;;;;;;;0.38;0.30;;;20.30;51.30;;;;;;5084021;27;86354;-51
2024/02/23 03:05:32;;;;;;;1.05;0.77;;;20.20;51.20;;;;;;5092696;27;86522;-51
2024/02/23 03:07:59;;;;;;;0.45;0.30;;;20.20;51.60;;;;;;5091952;27;87748;-52
2024/02/23 03:10:25;;;;;;;0.93;0.40;;;20.20;51.40;;;;;;5091430;27;87289;-51
2024/02/23 03:12:51;;;;;;;0.30;0.30;;;20.20;51.20;;;;;;5058864;27;85643;-54
2024/02/23 03:15:18;;;;;;;0.20;0.20;;;20.20;51.20;;;;;;5092134;27;86243;-52
2024/02/23 03:17:44;;;;;;;0.52;0.43;;;20.20;51.30;;;;;;5087566;27;85970;-53
2024/02/23 03:20:11;;;;;;;1.98;0.63;;;20.20;51.50;;;;;;5058052;27;86598;-50
2024/02/23 03:22:40;;;;;;;0.30;0.30;;;20.20;51.50;;;;;;5061045;27;86919;-53
2024/02/23 03:25:09;;;;;;;;;;;20.10;51.50;;;;;;5077629;27;86335;-48
2024/02/23 03:27:36;;;;;;;0.40;0.38;;;20.10;51.40;;;;;;5068228;27;86700;-54
2024/02/23 03:30:03;;;;;;;0.98;0.30;;;20.10;51.40;;;;;;5062127;27;86297;-50
2024/02/23 03:32:31;;;;;;;0.73;0.40;;;20.10;51.40;;;;;;5050897;27;86363;-50
2024/02/23 03:34:58;;;;;;;0.90;0.70;;;20.10;51.30;;;;;;5055782;27;86277;-50
2024/02/23 03:37:24;;;;;;;0.90;0.40;;;20.10;51.70;;;;;;5055892;27;87715;-53
2024/02/23 03:39:50;;;;;;;2.63;0.65;;;20.10;51.60;;;;;;5063102;27;86151;-49
2024/02/23 03:42:16;;;;;;;0.98;0.70;;;20.10;51.50;;;;;;5088312;27;86201;-56
2024/02/23 03:44:42;;;;;;;1.50;0.68;;;20.10;51.50;;;;;;5088077;27;85788;-55
2024/02/23 03:47:09;;;;;;;1.23;0.50;;;20.10;51.60;;;;;;5056679;27;86048;-49
2024/02/23 03:49:36;;;;;;;2.17;0.73;;;20.10;51.60;;;;;;5073506;27;85748;-54
2024/02/23 03:52:03;;;;;;;1.58;0.60;;;20.10;51.60;;;;;;5082253;27;85637;-52
2024/02/23 03:54:31;;;;;;;1.70;0.80;;;20.00;51.60;;;;;;5056430;27;86397;-52
2024/02/23 03:56:57;;;;;;;0.85;0.40;;;20.10;51.70;;;;;;5087173;27;87472;-53
2024/02/23 03:59:23;;;;;;;2.83;0.80;;;20.10;51.80;;;;;;5071105;27;86264;-51
2024/02/23 04:01:49;;;;;;;1.85;0.50;;;20.00;51.60;;;;;;5055359;27;85951;-51
2024/02/23 04:04:15;;;;;;;2.33;0.70;;;20.10;51.50;;;;;;5071598;27;86351;-53
2024/02/23 04:06:42;;;;;;;0.82;0.40;;;20.00;51.60;;;;;;5082226;27;87732;-54
2024/02/23 04:09:08;;;;;;;0.95;0.43;;;20.00;51.60;;;;;;5059072;27;86027;-53
2024/02/23 04:11:34;;;;;;;2.33;0.50;;;20.00;52.10;;;;;;5066034;27;85893;-52
2024/02/23 04:14:00;;;;;;;1.73;0.52;;;20.00;51.90;;;;;;5053783;27;85868;-54
2024/02/23 04:16:26;;;;;;;1.05;0.40;;;20.00;51.60;;;;;;5078493;27;86191;-53
2024/02/23 04:18:53;;;;;;;0.43;0.43;;;20.00;51.70;;;;;;5068307;27;86565;-53
2024/02/23 04:21:20;;;;;;;4.05;0.55;;;20.00;51.90;;;;;;5079560;27;86020;-54
2024/02/23 04:23:46;;;;;;;2.92;0.57;;;20.00;51.90;;;;;;5074813;27;86120;-49
2024/02/23 04:26:11;;;;;;;1.13;0.60;;;20.00;51.80;;;;;;5075713;27;87390;-53
2024/02/23 04:28:41;;;;;;;0.73;0.32;;;20.00;51.60;;;;;;5070558;27;86123;-52
2024/02/23 04:31:10;;;;;;;1.25;0.55;;;19.90;51.40;;;;;;5072535;27;86125;-53
2024/02/23 04:33:36;;;;;;;2.53;0.70;;;20.00;51.80;;;;;;5070527;27;85840;-54
2024/02/23 04:36:03;;;;;;;1.05;0.50;;;20.00;51.80;;;;;;5072407;27;87587;-52
2024/02/23 04:38:30;;;;;;;1.15;0.40;;;20.00;52.00;;;;;;5075238;27;86856;-52
2024/02/23 04:40:57;;;;;;;1.55;0.80;;;20.00;51.80;;;;;;5091266;27;86042;-49
2024/02/23 04:43:24;;;;;;;0.35;0.35;;;19.90;52.00;;;;;;5067650;27;86107;-50
2024/02/23 04:45:50;;;;;;;1.02;0.43;;;19.90;51.70;;;;;;5060774;27;86592;-50
2024/02/23 04:48:17;;;;;;;1.13;0.50;;;19.90;52.10;;;;;;5068466;27;86569;-54
2024/02/23 04:50:44;;;;;;;2.50;0.88;;;19.90;51.80;;;;;;5075616;27;86074;-54
2024/02/23 04:53:11;;;;;;;2.45;0.77;;;19.90;52.00;;;;;;5083118;27;86612;-53
2024/02/23 04:55:36;;;;;;;2.63;0.98;;;19.90;52.30;;;;;;5053488;27;86953;-51
2024/02/23 04:58:03;;;;;;;0.88;0.40;;;19.90;52.30;;;;;;5068315;27;87290;-50
2024/02/23 05:00:33;;;;;;;1.42;0.68;;;19.90;51.80;;;;;;5068226;27;85777;-50
2024/02/23 05:03:00;;;;;;;1.45;0.60;;;19.90;52.60;;;;;;5073620;27;85461;-52
2024/02/23 05:05:25;;;;;;;3.72;1.30;;;19.90;52.00;;;;;;5056212;27;87215;-51
2024/02/23 05:07:51;;;;;;;1.27;0.35;;;19.90;51.90;;;;;;5075201;27;86421;-53
2024/02/23 05:10:17;;;;;;;0.70;0.40;;;19.90;52.10;;;;;;5055612;27;85774;-51
2024/02/23 05:12:42;;;;;;;0.63;0.50;;;19.90;52.10;;;;;;5052603;27;85818;-50
2024/02/23 05:15:09;;;;;;;1.80;0.47;;;19.90;52.30;;;;;;5047372;27;86474;-50
2024/02/23 05:17:35;;;;;;;1.80;0.70;;;19.90;52.10;;;;;;5084223;27;87653;-49
2024/02/23 05:20:06;;;;;;;1.67;0.63;;;19.90;52.10;;;;;;5054711;27;86187;-52
2024/02/23 05:22:33;;;;;;;1.02;0.50;;;19.90;52.00;;;;;;5048577;27;85595;-55
2024/02/23 05:24:59;;;;;;;0.90;0.38;;;19.90;52.50;;;;;;5089485;27;87686;-51
2024/02/23 05:27:25;;;;;;;1.05;0.45;;;19.80;52.30;;;;;;5062406;27;86600;-48
2024/02/23 05:29:51;;;;;;;0.70;0.40;;;19.80;52.10;;;;;;5061837;27;85665;-50
2024/02/23 05:32:17;;;;;;;1.70;0.60;;;19.80;52.20;;;;;;5056371;27;85630;-54
2024/02/23 05:34:44;;;;;;;1.25;0.47;;;19.80;51.90;;;;;;5079861;27;88627;-49
2024/02/23 05:37:10;;;;;;;1.15;0.70;;;19.80;52.20;;;;;;5070320;27;87399;-51
2024/02/23 05:39:37;;;;;;;2.47;0.80;;;19.80;52.50;;;;;;5062253;27;85944;-48
2024/02/23 05:42:04;;;;;;;1.08;0.40;;;19.80;52.30;;;;;;5093233;27;86455;-52
2024/02/23 05:44:29;;;;;;;1.73;0.80;;;19.80;52.10;;;;;;5080656;27;87608;-54
2024/02/23 05:46:56;;;;;;;2.10;0.70;;;19.80;52.20;;;;;;5058928;27;85550;-54
2024/02/23 05:49:22;;;;;;;1.98;0.50;;;19.80;52.40;;;;;;5076398;27;86454;-49
2024/02/23 05:51:50;;;;;;;0.85;0.50;;;19.80;52.10;;;;;;5074266;27;86417;-50
2024/02/23 05:54:16;;;;;;;1.13;0.50;;;19.80;51.90;;;;;;5073058;27;87020;-54
2024/02/23 05:56:44;;;;;;;2.40;0.60;;;19.80;51.90;;;;;;5075515;27;86272;-57
2024/02/23 05:59:09;;;;;;;1.00;0.68;;;19.80;52.30;;;;;;5076050;27;86085;-54
2024/02/23 06:01:35;;;;;;;1.25;0.55;;;19.80;52.10;;;;;;5056825;27;85970;-55
2024/02/23 06:04:01;;;;;;;1.60;0.47;;;19.80;52.20;;;;;;5057582;27;85858;-52
2024/02/23 06:06:27;;;;;;;0.90;0.77;;;19.80;52.40;;;;;;5075746;27;86289;-54
2024/02/23 06:08:55;;;;;;;0.57;0.50;;;19.80;52.60;;;;;;5089651;27;86297;-52
2024/02/23 06:11:21;;;;;;;1.70;0.57;;;19.90;53.20;;;;;;5073557;27;85855;-57
2024/02/23 06:13:48;;;;;;;2.00;0.60;;;19.80;53.20;;;;;;5057939;27;86814;-51
2024/02/23 06:16:13;;;;;;;1.92;1.30;;;19.80;53.30;;;;;;5068261;27;86942;-53
2024/02/23 06:18:42;;;;;;;10.00;6.95;;;19.80;53.90;;;;;;5077401;27;85871;-53
2024/02/23 06:21:14;;;;;;;7.35;4.28;;;19.80;54.60;;;;;;5073556;27;86160;-51
2024/02/23 06:23:40;;;;;;;5.85;3.38;;;19.90;54.70;;;;;;5063542;27;86403;-49
2024/02/23 06:26:06;;;;;;;6.10;3.83;;;19.90;54.20;;;;;;5057061;27;86483;-54
2024/02/23 06:28:34;;;;;;;7.20;4.43;;;19.90;54.50;;;;;;5056445;27;86207;-53
2024/02/23 06:30:59;;;;;;;7.85;4.80;;;20.00;56.00;;;;;;5074914;27;86750;-52
2024/02/23 06:33:25;;;;;;;5.82;4.03;;;20.10;55.60;;;;;;5079071;27;87230;-56
2024/02/23 06:35:52;;;;;;;10.75;2.88;;;20.10;54.80;;;;;;5074774;27;88742;-54
2024/02/23 06:38:18;;;;;;;8.68;4.22;;;20.30;54.30;;;;;;5076938;27;86005;-48
2024/02/23 06:40:44;;;;;;;9.35;3.17;;;20.50;54.60;;;;;;5074888;27;86194;-54
2024/02/23 06:43:09;;;;;;;6.32;3.25;;;20.80;54.10;;;;;;5058251;27;86452;-51
2024/02/23 06:45:35;;;;;;;6.13;3.13;;;21.20;53.20;;;;;;5057770;27;86788;-52
2024/02/23 06:48:01;;;;;;;24.83;5.35;;;21.40;52.40;;;;;;5066341;27;86128;-52
2024/02/23 06:50:26;;;;;;;17.30;4.65;;;21.60;51.70;;;;;;5092024;27;85958;-50
2024/02/23 06:52:52;;;;;;;18.10;5.07;;;21.80;51.10;;;;;;5075775;27;86429;-53
2024/02/23 06:55:17;;;;;;;19.25;6.50;;;22.00;50.60;;;;;;5059745;27;86636;-54
2024/02/23 06:57:44;;;;;;;15.13;5.07;;;22.10;50.00;;;;;;5063108;27;85734;-55
2024/02/23 07:00:11;;;;;;;22.52;5.45;;;22.20;49.90;;;;;;5088174;27;86220;-54
2024/02/23 07:02:37;;;;;;;12.45;4.00;;;22.30;49.70;;;;;;5075324;27;87160;-63
2024/02/23 07:05:06;;;;;;;15.05;4.50;;;22.40;49.20;;;;;;5056934;27;86366;-63
2024/02/23 07:07:33;;;;;;;13.70;4.10;;;22.50;48.60;;;;;;5084284;27;86465;-63
2024/02/23 07:09:59;;;;;;;14.95;3.67;;;22.40;47.90;;;;;;5074723;27;85962;-62
2024/02/23 07:12:27;;;;;;;17.33;5.20;;;22.00;46.10;;;;;;5075391;27;86869;-66
2024/02/23 07:14:53;;;;;;;12.98;2.65;;;21.70;46.50;;;;;;5075622;27;86341;-62
2024/02/23 07:17:19;;;;;;;16.58;3.00;;;21.50;46.10;;;;;;5069834;27;86126;-61
2024/02/23 07:19:47;;;;;;;4.90;2.70;;;21.20;46.10;;;;;;5089870;27;86299;-61
2024/02/23 07:22:13;;;;;;;14.05;3.28;;;21.10;45.40;;;;;;5087653;27;87364;-61
2024/02/23 07:24:42;;;;;;;7.90;3.00;;;21.00;46.00;;;;;;5066423;27;86380;-61
2024/02/23 07:27:08;;;;;;;7.03;2.10;;;20.90;46.00;;;;;;5050429;27;86167;-63
2024/02/23 07:29:34;;;;;;;12.20;2.22;;;20.70;46.00;;;;;;5069558;27;85631;-60
2024/02/23 07:31:59;;;;;;;12.23;2.58;;;20.70;45.90;;;;;;5055513;27;86536;-62
2024/02/23 07:34:25;;;;;;;10.23;1.80;;;20.60;45.50;;;;;;5055076;27;86197;-64
2024/02/23 07:36:55;;;;;;;9.90;1.75;;;20.60;45.50;;;;;;5062825;27;86500;-61
2024/02/23 07:39:21;;;;;;;8.40;2.35;;;20.50;45.30;;;;;;5056603;27;86343;-66
2024/02/23 07:41:47;;;;;;;13.57;2.13;;;20.50;45.30;;;;;;5062314;27;87695;-64
2024/02/23 07:44:13;;;;;;;10.82;1.65;;;20.50;45.80;;;;;;5049005;27;86373;-62
2024/02/23 07:46:39;;;;;;;5.50;1.65;;;20.40;45.40;;;;;;5056833;27;85980;-60
2024/02/23 07:49:06;;;;;;;8.52;2.22;;;20.40;45.30;;;;;;5056307;27;85966;-61
2024/02/23 07:51:32;;;;;;;8.20;2.28;;;20.30;45.20;;;;;;5068877;27;86314;-60
2024/02/23 07:53:58;;;;;;;12.73;1.65;;;20.30;45.70;;;;;;5084979;27;86872;-63
2024/02/23 07:56:24;;;;;;;7.53;1.70;;;20.30;45.10;;;;;;5064525;27;85847;-58
2024/02/23 07:58:51;;;;;;;7.00;1.92;;;20.20;45.00;;;;;;5071635;27;85771;-57
2024/02/23 08:01:17;;;;;;;9.98;2.03;;;20.20;45.70;;;;;;5070644;27;87520;-61
2024/02/23 08:03:44;;;;;;;6.72;1.27;;;20.20;47.10;;;;;;5055895;27;85976;-61
2024/02/23 08:06:09;;;;;;;8.25;1.50;;;20.20;48.30;;;;;;5090820;27;85614;-61
2024/02/23 08:08:36;;;;;;;8.20;1.83;;;20.30;49.30;;;;;;5070972;27;85786;-62
2024/02/23 08:11:03;;;;;;;6.18;1.30;;;20.40;49.80;;;;;;5065116;27;86125;-65
2024/02/23 08:13:30;;;;;;;6.03;1.77;;;20.40;49.90;;;;;;5056647;27;86230;-63
2024/02/23 08:15:59;;;;;;;5.32;1.52;;;20.40;50.50;;;;;;5050746;27;86139;-62
2024/02/23 08:18:26;;;;;;;9.27;1.70;;;20.30;50.30;;;;;;5056814;27;85875;-61
2024/02/23 08:20:54;;;;;;;8.80;2.38;;;20.40;51.50;;;;;;5082029;27;86176;-59
2024/02/23 08:23:20;;;;;;;5.97;1.70;;;20.40;51.50;;;;;;5084138;27;86563;-60
2024/02/23 08:25:47;;;;;;;5.53;1.63;;;20.30;52.00;;;;;;5085310;27;86014;-64
2024/02/23 08:28:12;;;;;;;5.95;1.58;;;20.40;52.40;;;;;;5076095;27;85980;-61
2024/02/23 08:30:38;;;;;;;8.27;1.88;;;20.40;53.50;;;;;;5075959;27;86415;-61
2024/02/23 08:33:03;;;;;;;5.50;1.55;;;20.30;53.80;;;;;;5064948;27;87015;-62
2024/02/23 08:35:29;;;;;;;8.35;2.17;;;20.30;53.50;;;;;;5055789;27;85914;-63
2024/02/23 08:37:55;;;;;;;11.65;2.45;;;20.30;54.00;;;;;;5074425;27;85798;-63
2024/02/23 08:40:21;;;;;;;6.13;1.27;;;20.30;54.70;;;;;;5087712;27;87492;-61
2024/02/23 08:42:47;;;;;;;5.20;1.35;;;20.30;53.50;;;;;;5064763;27;86315;-59
2024/02/23 08:45:13;;;;;;;8.07;2.00;;;20.30;54.60;;;;;;5062946;27;86193;-60
2024/02/23 08:47:41;;;;;;;6.60;2.33;;;20.30;55.10;;;;;;5067735;27;85824;-61
2024/02/23 08:50:09;;;;;;;5.00;1.63;;;20.30;56.10;;;;;;5054774;27;86269;-61
2024/02/23 08:52:34;;;;;;;9.60;1.65;;;20.30;57.40;;;;;;5050992;27;86331;-62
2024/02/23 08:55:00;;;;;;;8.23;1.80;;;20.40;57.60;;;;;;5075155;27;85875;-63
2024/02/23 08:57:27;;;;;;;7.78;1.60;;;20.40;57.80;;;;;;5074545;27;85636;-61
2024/02/23 08:59:53;;;;;;;6.57;1.60;;;20.40;57.50;;;;;;5065076;27;86262;-62
2024/02/23 09:02:19;;;;;;;8.68;1.67;;;20.40;58.50;;;;;;5054234;27;87217;-65
2024/02/23 09:04:45;;;;;;;3.65;1.35;;;20.40;55.80;;;;;;5072274;27;85670;-60
2024/02/23 09:07:11;;;;;;;5.20;1.63;;;20.40;57.00;;;;;;5075416;27;85882;-63
2024/02/23 09:09:38;;;;;;;5.22;1.08;;;20.40;54.20;;;;;;5077949;27;86296;-60
2024/02/23 09:12:06;;;;;;;5.25;1.58;;;20.40;54.00;;;;;;5091170;27;87254;-60
2024/02/23 09:14:32;;;;;;;6.97;1.50;;;20.40;53.20;;;;;;5071992;27;86212;-62
2024/02/23 09:16:58;;;;;;;8.52;2.03;;;20.30;55.40;;;;;;5071256;27;85879;-63
2024/02/23 09:19:24;;;;;;;7.78;1.98;;;20.30;55.90;;;;;;5058721;27;86670;-66
2024/02/23 09:21:50;;;;;;;8.05;1.83;;;20.40;56.50;;;;;;5059077;27;86770;-61
2024/02/23 09:24:16;;;;;;;7.20;1.70;;;20.40;57.00;;;;;;5065407;27;85569;-61
2024/02/23 09:26:42;;;;;;;8.55;1.17;;;20.50;57.00;;;;;;5072341;27;85873;-61
2024/02/23 09:29:07;;;;;;;4.72;1.10;;;20.50;57.80;;;;;;5076411;27;86923;-64
2024/02/23 09:31:33;;;;;;;8.40;1.35;;;20.50;56.10;;;;;;5063235;27;87646;-59
2024/02/23 09:33:59;;;;;;;8.05;1.73;;;20.50;57.60;;;;;;5080744;27;86014;-60
2024/02/23 09:36:24;;;;;;;10.07;1.52;;;20.50;56.30;;;;;;5077440;27;85919;-60
2024/02/23 09:38:51;;;;;;;6.13;2.30;;;20.50;56.20;;;;;;5070980;27;86432;-61
2024/02/23 09:41:23;;;;;;;9.57;1.20;;;20.50;55.40;;;;;;5064353;27;86157;-60
2024/02/23 09:43:50;;;;;;;16.98;1.92;;;20.40;56.40;;;;;;5041429;27;85737;-62
2024/02/23 09:46:17;;;;;;;5.65;1.38;;;20.50;58.40;;;;;;5066496;27;86207;-60
2024/02/23 09:48:45;;;;;;;6.60;1.38;;;20.50;57.50;;;;;;5072596;27;87633;-63
2024/02/23 09:51:13;;;;;;;5.40;1.42;;;20.50;58.10;;;;;;5076868;27;85677;-63
2024/02/23 09:53:40;;;;;;;9.13;1.88;;;20.50;57.50;;;;;;5048536;27;86087;-61
2024/02/23 09:56:06;;;;;;;6.70;1.65;;;20.50;57.90;;;;;;5092582;27;85833;-54
2024/02/23 09:58:36;;;;;;;11.48;1.40;;;20.40;58.40;;;;;;5058233;27;87081;-63
2024/02/23 10:01:03;;;;;;;5.78;1.60;;;20.40;57.60;;;;;;5050937;27;86387;-68
2024/02/23 10:03:30;;;;;;;6.63;1.70;;;20.40;58.20;;;;;;5080390;27;86131;-63
2024/02/23 10:05:57;;;;;;;7.40;1.67;;;20.40;58.60;;;;;;5093438;27;85821;-61
2024/02/23 10:08:23;;;;;;;6.20;1.33;;;20.40;57.20;;;;;;5068497;27;87377;-61
2024/02/23 10:10:50;;;;;;;9.95;1.67;;;20.40;58.00;;;;;;5065334;27;86846;-65
2024/02/23 10:13:24;;;;;;;9.05;1.30;;;20.40;58.30;;;;;;5080075;27;86028;-62
2024/02/23 10:15:50;;;;;;;7.47;1.38;;;20.40;57.40;;;;;;5062307;27;85944;-65
2024/02/23 10:18:17;;;;;;;7.90;1.25;;;20.40;58.00;;;;;;5057315;27;86354;-64
2024/02/23 10:20:44;;;;;;;6.97;1.48;;;20.40;56.80;;;;;;5093756;27;88757;-63
2024/02/23 10:23:10;;;;;;;6.18;1.23;;;20.40;56.80;;;;;;5087126;27;85634;-61
2024/02/23 10:25:37;;;;;;;4.25;1.52;;;20.40;57.80;;;;;;5063754;27;85957;-57
2024/02/23 10:28:06;;;;;;;8.30;1.65;;;20.40;57.30;;;;;;5064434;27;87336;-58
2024/02/23 10:30:32;;;;;;;10.70;1.58;;;20.40;58.40;;;;;;5068084;27;86168;-64
2024/02/23 10:32:59;;;;;;;3.58;1.17;;;20.40;58.00;;;;;;5056934;27;86281;-63
2024/02/23 10:35:25;;;;;;;5.47;1.77;;;20.40;57.80;;;;;;5076043;27;85664;-63
2024/02/23 10:37:54;;;;;;;4.90;1.25;;;20.40;57.20;;;;;;5056408;27;87169;-77
2024/02/23 10:40:23;;;;;;;6.25;1.30;;;20.40;58.10;;;;;;5084753;27;87604;-53
2024/02/23 10:42:51;;;;;;;6.28;1.38;;;20.50;58.90;;;;;;5063478;27;85820;-63
2024/02/23 10:45:21;;;;;;;2.88;1.02;;;20.90;58.40;;;;;;5084625;27;86352;-50
2024/02/23 10:47:55;;;;;;;8.98;1.40;;;21.20;57.70;;;;;;5050458;27;86198;-51
2024/02/23 10:50:22;;;;;;;7.60;1.20;;;21.50;57.00;;;;;;5054249;27;86007;-55
2024/02/23 10:52:50;;;;;;;5.55;1.35;;;21.70;56.30;;;;;;5070406;27;86101;-62
2024/02/23 10:55:17;;;;;;;5.15;1.13;;;21.90;56.10;;;;;;5055573;27;86199;-59
2024/02/23 10:57:44;;;;;;;4.53;0.98;;;22.00;52.40;;;;;;5056451;27;87469;-62
2024/02/23 11:00:10;;;;;;;6.38;1.33;;;21.60;45.50;;;;;;5063668;27;86449;-62
2024/02/23 11:02:41;;;;;;;1.42;0.77;;;21.30;46.00;;;;;;5064491;27;86134;-62
2024/02/23 11:05:09;;;;;;;1.00;0.63;;;21.20;46.40;;;;;;5068133;27;85957;-62
2024/02/23 11:07:39;;;;;;;4.70;0.90;;;21.00;46.90;;;;;;5071014;27;85953;-63
2024/02/23 11:10:06;;;;;;;3.92;1.42;;;20.90;47.00;;;;;;5062359;27;86443;-61
2024/02/23 11:12:33;;;;;;;2.70;0.82;;;20.80;47.30;;;;;;5077620;27;85568;-61
2024/02/23 11:15:00;;;;;;;3.08;0.70;;;20.80;47.60;;;;;;5056056;27;86178;-60
2024/02/23 11:17:33;;;;;;;4.75;1.55;;;20.80;47.70;;;;;;5056500;27;86830;-61
2024/02/23 11:20:03;;;;;;;3.72;0.93;;;20.80;47.60;;;;;;5085313;27;87425;-61
2024/02/23 11:22:34;;;;;;;4.82;1.00;;;20.80;47.50;;;;;;5073321;27;85983;-62
2024/02/23 11:25:10;;;;;;;2.15;0.90;;;20.80;47.40;;;;;;5075995;27;85992;-63
2024/02/23 11:27:40;;;;;;;3.75;0.90;;;20.80;47.90;;;;;;5073471;27;87211;-60
2024/02/23 11:30:08;;;;;;;2.70;1.00;;;20.80;49.40;;;;;;5067909;27;86812;-62
2024/02/23 11:32:43;;;;;;;13.68;1.00;;;20.90;50.20;;;;;;5066671;27;86265;-61
2024/02/23 11:35:11;;;;;;;2.97;1.13;;;20.90;50.70;;;;;;5076605;27;85893;-61
2024/02/23 11:38:03;;;;;;;5.43;1.30;;;20.90;51.00;;;;;;5056950;27;87206;-60
2024/02/23 11:40:31;;;;;;;4.28;1.83;;;20.90;51.80;;;;;;5055666;27;86314;-60
2024/02/23 11:42:57;;;;;;;5.65;1.88;;;21.00;52.40;;;;;;5071472;27;86185;-68
2024/02/23 11:45:24;;;;;;;2.90;1.00;;;21.00;53.20;;;;;;5059243;27;86810;-59
2024/02/23 11:47:50;;;;;;;5.47;1.08;;;21.00;53.10;;;;;;5056093;27;86992;-61
2024/02/23 11:50:19;;;;;;;7.65;1.67;;;20.90;52.50;;;;;;5065459;27;86228;-60
2024/02/23 11:52:47;;;;;;;7.65;1.58;;;21.00;53.30;;;;;;5075451;27;86069;-59
2024/02/23 11:55:18;;;;;;;4.28;0.95;;;20.90;49.40;;;;;;5077102;27;85970;-63
2024/02/23 11:57:45;;;;;;;2.67;1.08;;;20.90;47.10;;;;;;5066627;27;87553;-62
2024/02/23 12:00:11;;;;;;;8.05;1.60;;;20.80;47.50;;;;;;5057286;27;86408;-60
2024/02/23 12:02:37;;;;;;;4.28;1.55;;;20.90;50.40;;;;;;5087749;27;85812;-61
2024/02/23 12:05:04;;;;;;;4.53;0.82;;;20.90;52.80;;;;;;5072334;27;86475;-62
2024/02/23 12:07:32;;;;;;;6.20;1.23;;;20.80;53.00;;;;;;5052633;27;86997;-65
2024/02/23 12:09:58;;;;;;;8.38;1.77;;;20.80;54.30;;;;;;5072540;27;86993;-60
2024/02/23 12:12:26;;;;;;;5.13;1.67;;;20.80;54.80;;;;;;5074875;27;85587;-62
2024/02/23 12:14:52;;;;;;;4.63;1.38;;;20.80;55.30;;;;;;5069132;27;85940;-62
2024/02/23 12:17:19;;;;;;;5.82;0.73;;;20.90;55.80;;;;;;5073271;27;86380;-62
2024/02/23 12:19:44;;;;;;;4.57;1.05;;;20.90;50.50;;;;;;5071911;27;86695;-60
2024/02/23 12:22:12;;;;;;;3.60;1.13;;;20.80;49.80;;;;;;5049080;27;86155;-60
2024/02/23 12:27:05;;;;;;;3.63;1.02;;;20.70;49.80;;;;;;5007784;28;88100;-60
2024/02/23 12:29:30;;;;;;;3.38;1.05;;;20.70;52.00;;;;;;5003357;27;86864;-61
2024/02/23 12:32:06;;;;;;;4.10;1.02;;;20.60;55.00;;;;;;4993009;28;85781;-62
2024/02/23 12:34:32;;;;;;;4.45;1.23;;;20.60;56.10;;;;;;4993282;27;85865;-61
2024/02/23 12:36:58;;;;;;;4.82;1.13;;;20.70;56.60;;;;;;4994147;28;87963;-61
2024/02/23 12:39:23;;;;;;;3.92;0.88;;;20.70;56.60;;;;;;5024521;27;86513;-61
2024/02/23 12:41:50;;;;;;;22.58;1.67;;;20.70;57.30;;;;;;5007890;27;86909;-62
2024/02/23 12:44:16;;;;;;;10.48;1.17;;;20.70;57.80;;;;;;5024689;27;86746;-66
2024/02/23 12:46:42;;;;;;;5.68;1.90;;;20.80;54.70;;;;;;4996696;27;86408;-63